createdAt,value
2022-08-16T00:01:41.792Z,14.64
2022-08-16T00:04:09.670Z,14.60
2022-08-16T00:06:39.433Z,14.54
2022-08-16T00:09:07.048Z,14.53
2022-08-16T00:11:33.957Z,14.54
2022-08-16T00:14:01.470Z,14.60
2022-08-16T00:17:06.337Z,14.53
2022-08-16T00:19:41.345Z,14.50
2022-08-16T00:22:13.482Z,14.50
2022-08-16T00:24:44.812Z,14.47
2022-08-16T00:27:14.233Z,14.51
2022-08-16T00:29:41.402Z,14.55
2022-08-16T00:32:10.930Z,14.50
2022-08-16T00:34:43.869Z,14.46
2022-08-16T00:37:16.923Z,14.36
2022-08-16T00:39:45.019Z,14.35
2022-08-16T00:42:30.296Z,14.38
2022-08-16T00:45:35.491Z,14.17
2022-08-16T00:48:30.679Z,14.18
2022-08-16T00:50:55.377Z,14.25
2022-08-16T00:53:23.094Z,14.30
2022-08-16T00:55:55.143Z,14.33
2022-08-16T00:58:34.389Z,14.35
2022-08-16T01:01:08.514Z,14.34
2022-08-16T01:03:41.543Z,14.25
2022-08-16T01:06:40.459Z,14.23
2022-08-16T01:09:00.473Z,14.17
2022-08-16T01:11:29.507Z,14.14
2022-08-16T01:14:09.213Z,14.11
2022-08-16T01:16:36.763Z,14.08
2022-08-16T01:19:20.047Z,14.03
2022-08-16T01:22:49.631Z,13.93
2022-08-16T01:24:55.022Z,13.94
2022-08-16T01:27:29.263Z,13.95
2022-08-16T01:30:21.774Z,13.95
2022-08-16T01:33:02.971Z,14.02
2022-08-16T01:35:52.799Z,14.01
2022-08-16T01:38:25.886Z,13.98
2022-08-16T01:41:06.103Z,13.88
2022-08-16T01:43:36.633Z,13.90
2022-08-16T01:46:37.389Z,13.97
2022-08-16T01:48:59.890Z,13.93
2022-08-16T01:51:29.942Z,13.89
2022-08-16T01:53:56.754Z,13.83
2022-08-16T01:56:25.522Z,13.78
2022-08-16T01:58:58.735Z,13.71
2022-08-16T02:01:28.369Z,13.70
2022-08-16T02:03:58.390Z,13.74
2022-08-16T02:06:34.620Z,13.71
2022-08-16T02:09:06.133Z,13.69
2022-08-16T02:11:47.600Z,13.75
2022-08-16T02:14:26.223Z,13.84
2022-08-16T02:16:54.144Z,13.89
2022-08-16T02:19:21.316Z,13.89
2022-08-16T02:22:08.492Z,13.78
2022-08-16T02:24:42.258Z,13.71
2022-08-16T02:27:13.126Z,13.71
2022-08-16T02:29:42.005Z,13.65
2022-08-16T02:32:49.308Z,13.62
2022-08-16T02:34:59.917Z,13.63
2022-08-16T02:37:51.222Z,13.64
2022-08-16T02:40:19.264Z,13.61
2022-08-16T02:42:50.796Z,13.66
2022-08-16T02:45:24.837Z,13.73
2022-08-16T02:48:01.421Z,13.64
2022-08-16T02:51:06.819Z,13.62
2022-08-16T02:53:29.363Z,13.51
2022-08-16T02:55:56.719Z,13.55
2022-08-16T02:58:25.182Z,13.63
2022-08-16T03:00:55.665Z,13.61
2022-08-16T03:03:24.804Z,13.54
2022-08-16T03:05:52.407Z,13.50
2022-08-16T03:08:52.270Z,13.44
2022-08-16T03:11:16.798Z,13.42
2022-08-16T03:13:56.665Z,13.43
2022-08-16T03:16:38.789Z,13.50
2022-08-16T03:19:09.086Z,13.53
2022-08-16T03:21:38.023Z,13.50
2022-08-16T03:24:28.875Z,13.44
2022-08-16T03:26:59.473Z,13.34
2022-08-16T03:29:33.636Z,13.14
2022-08-16T03:32:03.372Z,13.06
2022-08-16T03:34:34.898Z,13.09
2022-08-16T03:37:02.195Z,13.01
2022-08-16T03:39:29.273Z,12.96
2022-08-16T03:41:59.816Z,13.03
2022-08-16T03:44:43.635Z,13.07
2022-08-16T03:47:18.838Z,13.06
2022-08-16T03:49:51.717Z,13.12
2022-08-16T03:52:23.382Z,13.10
2022-08-16T03:54:57.498Z,13.11
2022-08-16T03:57:31.998Z,13.02
2022-08-16T04:00:20.811Z,12.97
2022-08-16T04:03:07.332Z,12.96
2022-08-16T04:05:44.176Z,12.97
2022-08-16T04:08:22.852Z,13.02
2022-08-16T04:10:54.133Z,12.99
2022-08-16T04:13:48.543Z,12.96
2022-08-16T04:16:27.459Z,12.90
2022-08-16T04:19:02.217Z,12.99
2022-08-16T04:21:32.375Z,13.09
2022-08-16T04:24:00.302Z,13.17
2022-08-16T04:26:31.224Z,13.12
2022-08-16T04:29:15.019Z,13.04
2022-08-16T04:31:56.797Z,12.82
2022-08-16T04:34:32.847Z,12.76
2022-08-16T04:37:01.320Z,12.92
2022-08-16T04:39:37.045Z,13.05
2022-08-16T04:42:17.407Z,13.19
2022-08-16T04:44:54.510Z,13.34
2022-08-16T04:47:31.602Z,13.39
2022-08-16T04:50:00.647Z,13.44
2022-08-16T04:52:34.009Z,13.32
2022-08-16T04:55:15.927Z,13.20
2022-08-16T04:57:44.293Z,13.24
2022-08-16T05:00:30.376Z,13.24
2022-08-16T05:03:07.661Z,13.36
2022-08-16T05:05:45.282Z,13.37
2022-08-16T05:08:28.218Z,13.27
2022-08-16T05:11:01.340Z,13.20
2022-08-16T05:13:40.862Z,13.17
2022-08-16T05:16:20.272Z,13.14
2022-08-16T05:18:50.465Z,13.27
2022-08-16T05:21:17.333Z,13.33
2022-08-16T05:23:58.465Z,13.43
2022-08-16T05:26:30.685Z,13.52
2022-08-16T05:29:00.188Z,13.57
2022-08-16T05:31:30.589Z,13.54
2022-08-16T05:34:00.200Z,13.53
2022-08-16T05:36:36.495Z,13.54
2022-08-16T05:39:09.447Z,13.55
2022-08-16T05:41:45.227Z,13.55
2022-08-16T05:44:23.393Z,13.56
2022-08-16T05:46:59.982Z,13.65
2022-08-16T05:49:38.919Z,13.76
2022-08-16T05:52:11.276Z,13.76
2022-08-16T05:54:46.799Z,13.77
2022-08-16T05:57:17.198Z,13.74
2022-08-16T05:59:45.474Z,13.78
2022-08-16T06:02:13.246Z,13.82
2022-08-16T06:04:44.934Z,13.81
2022-08-16T06:07:24.598Z,13.80
2022-08-16T06:09:56.086Z,13.88
2022-08-16T06:12:27.491Z,14.02
2022-08-16T06:15:04.238Z,14.15
2022-08-16T06:17:42.533Z,14.25
2022-08-16T06:20:23.243Z,14.34
2022-08-16T06:22:59.063Z,14.48
2022-08-16T06:25:36.008Z,14.60
2022-08-16T06:28:08.796Z,14.71
2022-08-16T06:30:43.977Z,14.78
2022-08-16T06:33:22.466Z,14.92
2022-08-16T06:35:55.292Z,15.05
2022-08-16T06:38:32.794Z,15.15
2022-08-16T06:41:03.738Z,15.29
2022-08-16T06:43:30.537Z,15.41
2022-08-16T06:45:57.109Z,15.52
2022-08-16T06:48:32.506Z,15.58
2022-08-16T06:51:00.064Z,15.63
2022-08-16T06:53:26.572Z,15.73
2022-08-16T06:55:59.575Z,15.85
2022-08-16T06:58:31.648Z,15.99
2022-08-16T07:01:00.547Z,16.11
2022-08-16T07:03:32.586Z,16.20
2022-08-16T07:05:59.556Z,16.32
2022-08-16T07:08:27.571Z,16.43
2022-08-16T07:10:56.517Z,16.57
2022-08-16T07:14:03.683Z,16.70
2022-08-16T07:16:15.402Z,16.80
2022-08-16T07:18:58.751Z,16.97
2022-08-16T07:21:28.103Z,17.14
2022-08-16T07:24:13.101Z,17.28
2022-08-16T07:27:00.874Z,17.39
2022-08-16T07:29:31.628Z,17.47
2022-08-16T07:31:59.577Z,17.61
2022-08-16T07:34:35.194Z,17.67
2022-08-16T07:37:11.127Z,17.79
2022-08-16T07:39:43.481Z,17.95
2022-08-16T07:42:20.260Z,18.02
2022-08-16T07:44:55.711Z,18.06
2022-08-16T07:47:24.693Z,18.18
2022-08-16T07:50:05.694Z,18.29
2022-08-16T07:52:34.812Z,18.36
2022-08-16T07:55:08.012Z,18.47
2022-08-16T07:57:38.088Z,18.44
2022-08-16T08:00:21.360Z,18.55
2022-08-16T08:02:53.481Z,18.69
2022-08-16T08:05:35.352Z,18.81
2022-08-16T08:08:03.179Z,18.88
2022-08-16T08:10:38.931Z,18.97
2022-08-16T08:13:05.651Z,19.08
2022-08-16T08:15:35.283Z,19.15
2022-08-16T08:18:30.623Z,19.24
2022-08-16T08:20:59.439Z,19.25
2022-08-16T08:23:27.578Z,19.38
2022-08-16T08:25:55.863Z,19.44
2022-08-16T08:28:23.113Z,19.54
2022-08-16T08:31:02.430Z,19.65
2022-08-16T08:33:31.404Z,19.73
2022-08-16T08:36:00.950Z,19.83
2022-08-16T08:38:44.146Z,19.94
2022-08-16T08:41:15.202Z,20.05
2022-08-16T08:43:42.905Z,20.09
2022-08-16T08:46:18.001Z,20.17
2022-08-16T08:48:58.386Z,20.30
2022-08-16T08:51:35.696Z,20.38
2022-08-16T08:54:06.975Z,20.51
2022-08-16T08:56:35.143Z,20.60
2022-08-16T08:59:12.738Z,20.67
2022-08-16T09:01:42.924Z,20.79
2022-08-16T09:04:24.419Z,20.86
2022-08-16T09:06:53.525Z,20.96
2022-08-16T09:09:20.829Z,21.06
2022-08-16T09:11:53.573Z,21.15
2022-08-16T09:14:32.132Z,21.19
2022-08-16T09:17:03.313Z,21.33
2022-08-16T09:19:40.937Z,21.42
2022-08-16T09:22:19.611Z,21.53
2022-08-16T09:24:53.328Z,21.65
2022-08-16T09:27:23.506Z,21.77
2022-08-16T09:29:59.867Z,21.90
2022-08-16T09:32:30.922Z,22.01
2022-08-16T09:35:01.091Z,22.16
2022-08-16T09:37:30.464Z,22.29
2022-08-16T09:40:31.633Z,22.34
2022-08-16T09:42:59.412Z,22.39
2022-08-16T09:45:28.820Z,22.54
2022-08-16T09:47:58.281Z,22.60
2022-08-16T09:50:36.768Z,22.61
2022-08-16T09:53:16.739Z,22.68
2022-08-16T09:55:56.843Z,22.71
2022-08-16T09:58:40.660Z,22.73
2022-08-16T10:01:13.458Z,22.83
2022-08-16T10:04:01.818Z,22.98
2022-08-16T10:06:33.933Z,23.15
2022-08-16T10:09:06.735Z,23.32
2022-08-16T10:11:56.134Z,23.47
2022-08-16T10:14:37.834Z,23.53
2022-08-16T10:17:05.939Z,23.82
2022-08-16T10:19:34.060Z,23.92
2022-08-16T10:22:05.002Z,24.01
2022-08-16T10:24:33.279Z,24.24
2022-08-16T10:27:25.229Z,24.49
2022-08-16T10:29:59.208Z,24.74
2022-08-16T10:32:30.525Z,24.79
2022-08-16T10:34:59.063Z,24.77
2022-08-16T10:37:32.570Z,24.74
2022-08-16T10:40:28.586Z,24.66
2022-08-16T10:42:55.698Z,24.54
2022-08-16T10:45:22.861Z,24.55
2022-08-16T10:48:00.910Z,24.55
2022-08-16T10:50:32.311Z,24.57
2022-08-16T10:53:00.476Z,24.65
2022-08-16T10:55:43.851Z,24.77
2022-08-16T10:58:17.017Z,24.89
2022-08-16T11:00:46.275Z,24.86
2022-08-16T11:06:03.433Z,24.58
2022-08-16T11:08:41.945Z,24.46
2022-08-16T11:11:19.182Z,24.36
2022-08-16T11:14:06.007Z,24.45
2022-08-16T11:19:22.587Z,24.72
2022-08-16T11:24:44.660Z,24.75
2022-08-16T11:27:24.109Z,24.82
2022-08-16T11:29:56.783Z,25.02
2022-08-16T11:32:31.181Z,25.16
2022-08-16T11:35:10.713Z,25.26
2022-08-16T11:40:46.953Z,25.46
2022-08-16T11:43:26.411Z,25.53
2022-08-16T11:45:56.728Z,25.63
2022-08-16T11:48:29.882Z,25.89
2022-08-16T11:50:57.509Z,26.19
2022-08-16T11:53:25.081Z,26.45
2022-08-16T11:55:55.066Z,26.46
2022-08-16T11:58:25.298Z,26.46
2022-08-16T12:00:55.189Z,26.50
2022-08-16T12:03:34.831Z,26.62
2022-08-16T12:06:25.359Z,26.72
2022-08-16T12:09:00.855Z,26.72
2022-08-16T12:11:31.327Z,26.74
2022-08-16T12:14:01.663Z,26.64
2022-08-16T12:16:34.434Z,26.52
2022-08-16T12:19:07.241Z,26.43
2022-08-16T12:21:58.420Z,26.31
2022-08-16T12:24:24.125Z,26.23
2022-08-16T12:26:51.870Z,26.21
2022-08-16T12:29:19.323Z,26.18
2022-08-16T12:32:00.593Z,26.15
2022-08-16T12:34:32.989Z,26.12
2022-08-16T12:37:03.591Z,26.07
2022-08-16T12:39:31.579Z,26.05
2022-08-16T12:41:59.111Z,26.11
2022-08-16T12:44:31.222Z,26.14
2022-08-16T12:47:17.430Z,26.06
2022-08-16T12:49:44.045Z,25.99
2022-08-16T12:52:33.791Z,26.16
2022-08-16T12:54:59.031Z,26.42
2022-08-16T12:57:25.568Z,26.60
2022-08-16T13:00:12.735Z,26.70
2022-08-16T13:02:53.946Z,26.73
2022-08-16T13:05:20.545Z,26.92
2022-08-16T13:07:51.633Z,27.11
2022-08-16T13:10:37.987Z,27.20
2022-08-16T13:13:09.106Z,27.20
2022-08-16T13:15:55.491Z,27.18
2022-08-16T13:18:34.482Z,27.16
2022-08-16T13:21:05.600Z,27.20
2022-08-16T13:23:33.778Z,27.22
2022-08-16T13:26:03.862Z,27.20
2022-08-16T13:28:30.476Z,27.15
2022-08-16T13:30:58.859Z,27.03
2022-08-16T13:33:36.791Z,26.93
2022-08-16T13:36:08.407Z,26.82
2022-08-16T13:38:49.247Z,26.75
2022-08-16T13:41:15.966Z,26.73
2022-08-16T13:43:42.956Z,26.69
2022-08-16T13:46:09.547Z,26.64
2022-08-16T13:48:44.012Z,26.63
2022-08-16T13:51:18.594Z,26.56
2022-08-16T13:53:54.232Z,26.49
2022-08-16T13:56:35.990Z,26.44
2022-08-16T13:59:14.376Z,26.37
2022-08-16T14:01:55.198Z,26.34
2022-08-16T14:04:30.023Z,26.26
2022-08-16T14:07:00.784Z,26.27
2022-08-16T14:09:30.220Z,26.29
2022-08-16T14:12:00.533Z,26.31
2022-08-16T14:14:30.032Z,26.35
2022-08-16T14:17:02.157Z,26.34
2022-08-16T14:19:30.012Z,26.37
2022-08-16T14:22:14.595Z,26.29
2022-08-16T14:24:45.217Z,26.27
2022-08-16T14:27:17.693Z,26.29
2022-08-16T14:29:48.984Z,26.29
2022-08-16T14:32:29.093Z,26.28
2022-08-16T14:35:07.350Z,26.23
2022-08-16T14:37:35.023Z,26.21
2022-08-16T14:40:03.402Z,26.19
2022-08-16T14:42:30.344Z,26.19
2022-08-16T14:44:57.575Z,26.21
2022-08-16T14:47:34.193Z,26.23
2022-08-16T14:50:02.561Z,26.29
2022-08-16T14:52:53.918Z,26.32
2022-08-16T14:55:16.285Z,26.32
2022-08-16T14:57:43.378Z,26.34
2022-08-16T15:00:14.157Z,26.39
2022-08-16T15:02:50.744Z,26.39
2022-08-16T15:05:25.641Z,26.37
2022-08-16T15:07:56.684Z,26.35
2022-08-16T15:10:29.166Z,26.41
2022-08-16T15:12:58.296Z,26.51
2022-08-16T15:15:30.220Z,26.57
2022-08-16T15:17:57.618Z,26.62
2022-08-16T15:20:32.563Z,26.66
2022-08-16T15:23:03.085Z,26.70
2022-08-16T15:25:44.739Z,26.64
2022-08-16T15:28:30.490Z,26.59
2022-08-16T15:31:03.485Z,26.51
2022-08-16T15:33:35.274Z,26.40
2022-08-16T15:36:04.564Z,26.42
2022-08-16T15:39:03.043Z,26.43
2022-08-16T15:42:05.310Z,26.35
2022-08-16T15:44:51.422Z,26.42
2022-08-16T15:47:25.808Z,26.47
2022-08-16T15:49:55.505Z,26.48
2022-08-16T15:52:32.806Z,26.47
2022-08-16T15:55:12.773Z,26.39
2022-08-16T15:57:51.373Z,26.35
2022-08-16T16:00:20.573Z,26.36
2022-08-16T16:02:49.589Z,26.35
2022-08-16T16:05:16.963Z,26.52
2022-08-16T16:07:56.842Z,26.64
2022-08-16T16:10:31.655Z,26.77
2022-08-16T16:13:03.759Z,26.82
2022-08-16T16:15:36.939Z,26.90
2022-08-16T16:18:09.855Z,26.99
2022-08-16T16:20:46.506Z,27.00
2022-08-16T16:23:17.444Z,26.99
2022-08-16T16:25:47.567Z,26.97
2022-08-16T16:29:06.376Z,26.96
2022-08-16T16:31:13.358Z,26.87
2022-08-16T16:33:43.376Z,26.78
2022-08-16T16:36:14.615Z,26.70
2022-08-16T16:38:45.524Z,26.66
2022-08-16T16:41:14.165Z,26.59
2022-08-16T16:43:44.619Z,26.53
2022-08-16T16:46:40.388Z,26.52
2022-08-16T16:49:08.415Z,26.50
2022-08-16T16:51:44.966Z,26.50
2022-08-16T16:54:27.826Z,26.47
2022-08-16T16:56:57.054Z,26.42
2022-08-16T16:59:25.541Z,26.39
2022-08-16T17:02:00.193Z,26.38
2022-08-16T17:04:41.465Z,26.35
2022-08-16T17:07:10.984Z,26.35
2022-08-16T17:09:41.099Z,26.33
2022-08-16T17:12:10.098Z,26.28
2022-08-16T17:14:42.754Z,26.24
2022-08-16T17:17:11.509Z,26.22
2022-08-16T17:19:41.803Z,26.20
2022-08-16T17:22:16.392Z,26.18
2022-08-16T17:27:39.752Z,26.14
2022-08-16T17:30:15.078Z,26.08
2022-08-16T17:32:54.363Z,26.05
2022-08-16T17:35:39.151Z,25.97
2022-08-16T17:38:09.600Z,25.95
2022-08-16T17:39:28.284Z,26.20
2022-08-16T17:40:59.233Z,25.93
2022-08-16T17:43:44.487Z,25.98
2022-08-16T17:46:51.082Z,25.98
2022-08-16T17:49:01.237Z,25.93
2022-08-16T17:51:28.540Z,25.90
2022-08-16T17:53:55.567Z,25.86
2022-08-16T17:56:22.705Z,25.82
2022-08-16T17:58:49.550Z,25.75
2022-08-16T18:01:18.136Z,25.68
2022-08-16T18:04:06.996Z,25.60
2022-08-16T18:06:31.076Z,25.21
2022-08-16T18:09:03.587Z,25.24
2022-08-16T18:11:33.704Z,25.20
2022-08-16T18:14:00.447Z,25.13
2022-08-16T18:16:27.045Z,25.03
2022-08-16T18:18:53.656Z,24.94
2022-08-16T18:21:38.455Z,24.86
2022-08-16T18:24:05.413Z,24.70
2022-08-16T18:26:31.977Z,24.59
2022-08-16T18:28:58.574Z,24.49
2022-08-16T18:31:25.338Z,24.35
2022-08-16T18:33:55.753Z,24.23
2022-08-16T18:36:25.277Z,24.09
2022-08-16T18:38:53.824Z,24.01
2022-08-16T18:41:23.715Z,23.88
2022-08-16T18:43:59.217Z,23.73
2022-08-16T18:46:43.169Z,23.50
2022-08-16T18:49:11.498Z,23.35
2022-08-16T18:51:42.579Z,23.22
2022-08-16T18:54:11.958Z,23.06
2022-08-16T18:56:57.110Z,22.95
2022-08-16T18:59:30.383Z,22.74
2022-08-16T19:02:04.472Z,22.64
2022-08-16T19:04:56.956Z,22.47
2022-08-16T19:07:30.971Z,22.32
2022-08-16T19:10:02.060Z,22.21
2022-08-16T19:12:38.343Z,22.05
2022-08-16T19:15:15.934Z,21.89
2022-08-16T19:17:44.156Z,21.84
2022-08-16T19:20:13.467Z,21.79
2022-08-16T19:25:48.552Z,21.51
2022-08-16T19:28:49.597Z,21.32
2022-08-16T19:31:30.432Z,21.14
2022-08-16T19:33:58.029Z,21.04
2022-08-16T19:36:37.786Z,20.98
2022-08-16T19:39:15.095Z,20.93
2022-08-16T19:41:46.297Z,20.89
2022-08-16T19:44:19.836Z,20.70
2022-08-16T19:46:48.579Z,20.61
2022-08-16T19:49:16.559Z,20.59
2022-08-16T19:51:47.803Z,20.56
2022-08-16T19:54:15.378Z,20.47
2022-08-16T19:56:41.931Z,20.31
2022-08-16T19:59:40.358Z,20.21
2022-08-16T20:01:55.457Z,20.15
2022-08-16T20:04:23.767Z,20.09
2022-08-16T20:06:54.683Z,20.10
2022-08-16T20:09:23.382Z,20.02
2022-08-16T20:11:52.661Z,19.92
2022-08-16T20:14:25.370Z,19.84
2022-08-16T20:16:59.363Z,19.68
2022-08-16T20:19:33.436Z,19.58
2022-08-16T20:22:52.370Z,19.46
2022-08-16T20:25:31.581Z,19.36
2022-08-16T20:28:00.809Z,19.33
2022-08-16T20:30:28.388Z,19.27
2022-08-16T20:32:55.568Z,19.24
2022-08-16T20:35:26.208Z,19.13
2022-08-16T20:37:53.796Z,19.03
2022-08-16T20:40:34.228Z,19.00
2022-08-16T20:43:13.622Z,18.96
2022-08-16T20:45:43.627Z,18.90
2022-08-16T20:48:11.169Z,18.86
2022-08-16T20:50:38.647Z,18.77
2022-08-16T20:53:06.429Z,18.82
2022-08-16T20:55:40.296Z,18.80
2022-08-16T20:58:07.278Z,18.78
2022-08-16T21:00:33.983Z,18.72
2022-08-16T21:03:05.467Z,18.66
2022-08-16T21:05:32.115Z,18.59
2022-08-16T21:07:59.897Z,18.67
2022-08-16T21:10:27.030Z,18.72
2022-08-16T21:13:03.477Z,18.72
2022-08-16T21:15:32.825Z,18.65
2022-08-16T21:18:00.980Z,18.58
2022-08-16T21:20:29.168Z,18.51
2022-08-16T21:23:00.910Z,18.41
2022-08-16T21:25:29.096Z,18.39
2022-08-16T21:28:40.193Z,18.38
2022-08-16T21:30:44.648Z,18.26
2022-08-16T21:33:16.780Z,18.22
2022-08-16T21:35:47.514Z,18.11
2022-08-16T21:38:29.068Z,18.08
2022-08-16T21:40:59.291Z,17.99
2022-08-16T21:43:28.639Z,17.94
2022-08-16T21:45:55.994Z,17.87
2022-08-16T21:48:35.836Z,17.84
2022-08-16T21:51:09.943Z,17.78
2022-08-16T21:53:37.840Z,17.74
2022-08-16T21:56:06.344Z,17.74
2022-08-16T21:58:33.264Z,17.71
2022-08-16T22:01:02.345Z,17.67
2022-08-16T22:03:32.923Z,17.66
2022-08-16T22:06:11.986Z,17.61
2022-08-16T22:08:50.347Z,17.62
2022-08-16T22:11:23.840Z,17.65
2022-08-16T22:13:57.997Z,17.68
2022-08-16T22:16:31.325Z,17.69
2022-08-16T22:18:58.081Z,17.70
2022-08-16T22:21:25.072Z,17.60
2022-08-16T22:23:56.650Z,17.50
2022-08-16T22:26:32.199Z,17.35
2022-08-16T22:29:06.639Z,17.35
2022-08-16T22:31:34.438Z,17.36
2022-08-16T22:34:02.348Z,17.21
2022-08-16T22:36:31.023Z,17.20
2022-08-16T22:39:00.291Z,17.24
2022-08-16T22:41:30.759Z,17.25
2022-08-16T22:43:58.493Z,17.18
2022-08-16T22:46:25.114Z,17.11
2022-08-16T22:48:51.725Z,17.21
2022-08-16T22:51:21.973Z,17.24
2022-08-16T22:53:49.653Z,17.22
2022-08-16T22:56:17.364Z,17.16
2022-08-16T22:58:45.462Z,17.07
2022-08-16T23:01:15.082Z,17.07
2022-08-16T23:03:42.541Z,17.05
2022-08-16T23:06:12.216Z,17.04
2022-08-16T23:08:41.442Z,17.01
2022-08-16T23:11:19.940Z,16.99
2022-08-16T23:13:52.976Z,16.98
2022-08-16T23:16:32.624Z,17.02
2022-08-16T23:19:06.441Z,17.07
2022-08-16T23:21:35.296Z,17.01
2022-08-16T23:24:02.528Z,16.97
2022-08-16T23:26:44.813Z,16.99
2022-08-16T23:29:24.501Z,16.94
2022-08-16T23:32:10.719Z,16.87
2022-08-16T23:34:37.378Z,16.76
2022-08-16T23:37:04.934Z,16.71
2022-08-16T23:39:31.499Z,16.68
2022-08-16T23:41:58.731Z,16.68
2022-08-16T23:44:55.267Z,16.70
2022-08-16T23:47:11.848Z,16.63
2022-08-16T23:50:01.988Z,16.64
2022-08-16T23:52:53.176Z,16.58
2022-08-16T23:55:12.618Z,16.52
2022-08-16T23:57:39.118Z,16.56
